Republic Airport Farmingdale US
ICAO: KFRG
IATA: FRG
Category: Medium
Scheduled Services: No

Elevation: 82 ft
TransAlt. 18000 ft.

Airport Communications:
NEW YORK APP:118.4
ATIS:126.65
CLNC DEL:128.25
CTAF:118.8
NEW YORK DEP:123.7
GND:121.6
:111.9
TWR:118.8
UNICOM:122.95

KFRG Zoom In..

If you have problems with the map follow the link
https://www.worldairports.se/pages/airport.php?
ICAO=KFRG

Runways:

(A) RW 01 length 5516 ft width 150 ft
---- / hdg 13

(B) RW 14 length 6833 ft width 150 ft
ILS 111.90 / hdg 146

(C) RW 19 length 5516 ft width 150 ft
---- / hdg 193

(D) RW 32 length 6833 ft width 150 ft
---- / hdg 326

Location; KFRG
Day. 26 / Time. 02.53 Zulu
* Altimeter: 29.76
* Temperature: 08° c. 46.4°f.
* Wind from: 280° Speed 09 kn.
Dewpoint: 05° c.
Visibility: 10 Statute Miles.
Clouds: Scattered 900 ft.

KFRG 260253Z 28009KT 10SM SCT009 08/05 A2976 RMK AO2 SLP078 T00780050 53007


Wind From 280°
Speed 09 kn.

 
 
jpsmedia worldairports.se 2020   terms of use